Terminal Aerodrome Forecast
Issued by NWS Northern Indiana

Home | Current Version | Previous Version | Graphics & Text | Print | Product List | Glossary On
Versions: 1 2 3 4 5 6 7 8 9 10 11 12 13 14 15 16 17 18
000
FTUS43 KIWX 172322
TAFFWA
TAF
KFWA 172322Z 1800/1824 16010KT P6SM OVC090
     FM180200 17013KT P6SM -SHRA OVC070 WS020/20040KT
     FM180500 19013KT 4SM SHRA BR OVC020 WS020/21050KT
     FM181000 21012KT 3SM SHRA BR OVC008
     FM182000 31016G23KT 3SM SHRA BR OVC008=

USA.gov is the U.S. government's official web portal to all federal, state and local government web resources and services.